createdAt,value
2018-12-06T00:00:18.830Z,0.00
2018-12-06T00:01:19.441Z,0.00
2018-12-06T00:02:20.163Z,0.00
2018-12-06T00:03:20.632Z,0.00
2018-12-06T00:04:21.114Z,0.00
2018-12-06T00:05:21.551Z,0.00
2018-12-06T00:06:22.066Z,0.00
2018-12-06T00:07:22.499Z,0.00
2018-12-06T00:08:22.987Z,0.00
2018-12-06T00:09:23.409Z,0.00
2018-12-06T00:10:23.902Z,0.00
2018-12-06T00:11:24.371Z,0.00
2018-12-06T00:12:25.874Z,0.00
2018-12-06T00:13:26.326Z,0.00
2018-12-06T00:14:26.779Z,0.00
2018-12-06T00:15:27.303Z,0.00
2018-12-06T00:16:27.789Z,0.00
2018-12-06T00:17:28.231Z,0.00
2018-12-06T00:18:28.669Z,0.00
2018-12-06T00:19:29.209Z,0.00
2018-12-06T00:20:29.640Z,0.00
2018-12-06T00:21:31.150Z,0.00
2018-12-06T00:22:31.611Z,0.00
2018-12-06T00:23:32.107Z,0.00
2018-12-06T00:24:32.542Z,0.00
2018-12-06T00:25:33.024Z,0.00
2018-12-06T00:26:33.482Z,0.00
2018-12-06T00:27:33.914Z,0.00
2018-12-06T00:28:34.357Z,0.00
2018-12-06T00:29:34.876Z,0.00
2018-12-06T00:30:35.321Z,0.00
2018-12-06T00:31:35.805Z,0.00
2018-12-06T00:32:36.267Z,0.00
2018-12-06T00:33:36.778Z,0.00
2018-12-06T00:34:37.200Z,0.00
2018-12-06T00:35:37.645Z,0.00
2018-12-06T00:36:38.233Z,0.00
2018-12-06T00:37:38.649Z,0.00
2018-12-06T00:38:39.136Z,0.00
2018-12-06T00:39:39.583Z,0.00
2018-12-06T00:40:40.077Z,0.00
2018-12-06T00:41:40.532Z,0.00
2018-12-06T00:42:41.019Z,0.00
2018-12-06T00:43:41.443Z,0.00
2018-12-06T00:44:41.907Z,0.00
2018-12-06T00:45:42.361Z,0.00
2018-12-06T00:46:42.894Z,0.00
2018-12-06T00:47:43.308Z,0.00
2018-12-06T00:48:43.827Z,0.00
2018-12-06T00:49:44.255Z,0.00
2018-12-06T00:50:44.758Z,0.00
2018-12-06T00:51:45.218Z,0.00
2018-12-06T00:52:45.711Z,0.00
2018-12-06T00:53:46.114Z,0.00
2018-12-06T00:54:46.627Z,0.00
2018-12-06T00:55:47.066Z,0.00
2018-12-06T00:56:47.548Z,0.00
2018-12-06T00:57:47.975Z,0.00
2018-12-06T00:58:48.499Z,0.00
2018-12-06T00:59:48.936Z,0.00
2018-12-06T01:00:49.420Z,0.00
2018-12-06T01:01:49.855Z,0.00
2018-12-06T01:02:50.374Z,0.00
2018-12-06T01:03:50.808Z,0.00
2018-12-06T01:04:51.285Z,0.00
2018-12-06T01:05:51.771Z,0.00
2018-12-06T01:06:52.318Z,0.00
2018-12-06T01:07:52.776Z,0.00
2018-12-06T01:08:53.229Z,0.00
2018-12-06T01:09:53.775Z,0.00
2018-12-06T01:10:54.233Z,0.00
2018-12-06T01:11:54.722Z,0.00
2018-12-06T01:12:55.163Z,0.00
2018-12-06T01:13:55.615Z,0.00
2018-12-06T01:14:56.163Z,0.00
2018-12-06T01:15:56.623Z,0.00
2018-12-06T01:16:58.125Z,0.00
2018-12-06T01:17:58.579Z,0.00
2018-12-06T01:18:59.082Z,0.00
2018-12-06T01:19:59.578Z,0.00
2018-12-06T01:20:59.993Z,0.00
2018-12-06T01:22:00.448Z,0.00
2018-12-06T01:23:00.942Z,0.00
2018-12-06T01:24:01.407Z,0.00
2018-12-06T01:25:01.868Z,0.00
2018-12-06T01:26:02.301Z,0.00
2018-12-06T01:27:02.791Z,0.00
2018-12-06T01:28:03.249Z,0.00
2018-12-06T01:29:03.729Z,0.00
2018-12-06T01:30:04.183Z,0.00
2018-12-06T01:31:04.635Z,0.00
2018-12-06T01:32:06.119Z,0.00
2018-12-06T01:33:06.582Z,0.00
2018-12-06T01:34:07.058Z,0.00
2018-12-06T01:35:07.556Z,0.00
2018-12-06T01:36:08.035Z,0.00
2018-12-06T01:37:10.298Z,0.00
2018-12-06T01:38:12.311Z,0.00
2018-12-06T01:39:14.292Z,0.00
2018-12-06T01:40:16.278Z,0.00
2018-12-06T01:41:18.292Z,0.00
2018-12-06T01:42:18.736Z,0.00
2018-12-06T01:43:19.192Z,0.00
2018-12-06T01:44:19.656Z,0.00
2018-12-06T01:45:20.105Z,0.00
2018-12-06T01:46:20.687Z,0.00
2018-12-06T01:47:21.123Z,0.00
2018-12-06T01:48:21.592Z,0.00
2018-12-06T01:49:23.122Z,0.00
2018-12-06T01:50:23.575Z,0.00
2018-12-06T01:51:25.787Z,0.00
2018-12-06T01:52:26.321Z,0.00
2018-12-06T01:53:26.763Z,0.00
2018-12-06T01:54:28.257Z,0.00
2018-12-06T01:55:28.723Z,0.00
2018-12-06T01:56:29.161Z,0.00
2018-12-06T01:57:29.607Z,0.00
2018-12-06T01:58:30.069Z,0.00
2018-12-06T01:59:30.548Z,0.00
2018-12-06T02:00:31.046Z,0.00
2018-12-06T02:01:31.462Z,0.00
2018-12-06T02:02:31.912Z,0.00
2018-12-06T02:03:32.833Z,0.00
2018-12-06T02:04:33.740Z,0.00
2018-12-06T02:05:35.610Z,0.00
2018-12-06T02:06:36.536Z,0.00
2018-12-06T02:07:37.775Z,0.00
2018-12-06T02:08:38.536Z,0.00
2018-12-06T02:09:39.222Z,0.00
2018-12-06T02:10:39.827Z,0.00
2018-12-06T02:11:40.561Z,0.00
2018-12-06T02:12:41.165Z,0.00
2018-12-06T02:13:41.898Z,0.00
2018-12-06T02:14:42.517Z,0.00
2018-12-06T02:15:43.362Z,0.00
2018-12-06T02:16:44.026Z,0.00
2018-12-06T02:17:44.691Z,0.00
2018-12-06T02:18:45.310Z,0.00
2018-12-06T02:19:46.024Z,0.00
2018-12-06T02:20:46.672Z,0.00
2018-12-06T02:21:47.254Z,0.00
2018-12-06T02:22:47.893Z,0.00
2018-12-06T02:23:48.500Z,0.00
2018-12-06T02:24:49.229Z,0.00
2018-12-06T02:25:49.868Z,0.00
2018-12-06T02:26:50.601Z,0.00
2018-12-06T02:27:51.216Z,0.00
2018-12-06T02:28:51.917Z,0.00
2018-12-06T02:29:52.556Z,0.00
2018-12-06T02:31:08.291Z,0.00
2018-12-06T02:32:08.921Z,0.00
2018-12-06T02:33:09.602Z,0.00
2018-12-06T02:34:10.220Z,0.00
2018-12-06T02:35:11.942Z,0.00
2018-12-06T02:36:12.578Z,0.00
2018-12-06T02:37:13.182Z,0.00
2018-12-06T02:38:14.807Z,0.00
2018-12-06T02:39:15.441Z,0.00
2018-12-06T02:40:16.077Z,0.00
2018-12-06T02:41:16.800Z,0.00
2018-12-06T02:42:17.414Z,0.00
2018-12-06T02:43:18.144Z,0.00
2018-12-06T02:44:18.760Z,0.00
2018-12-06T02:45:19.497Z,0.00
2018-12-06T02:46:20.118Z,0.00
2018-12-06T02:47:20.810Z,0.00
2018-12-06T02:48:21.416Z,0.00
2018-12-06T02:49:22.233Z,0.00
2018-12-06T02:50:22.783Z,0.00
2018-12-06T02:51:24.428Z,0.00
2018-12-06T02:52:25.051Z,0.00
2018-12-06T02:53:25.682Z,0.00
2018-12-06T02:54:26.272Z,0.00
2018-12-06T02:55:26.929Z,0.00
2018-12-06T02:56:29.316Z,0.00
2018-12-06T02:57:30.016Z,0.00
2018-12-06T02:58:30.624Z,0.00
2018-12-06T02:59:32.830Z,0.00
2018-12-06T03:00:35.322Z,0.00
2018-12-06T03:01:38.834Z,0.00
2018-12-06T03:02:41.312Z,0.00
2018-12-06T03:03:42.021Z,0.00
2018-12-06T03:04:42.659Z,0.00
2018-12-06T03:05:43.350Z,0.00
2018-12-06T03:06:43.898Z,0.00
2018-12-06T03:07:46.559Z,0.00
2018-12-06T03:08:47.172Z,0.00
2018-12-06T03:09:49.867Z,0.00
2018-12-06T03:10:50.508Z,0.00
2018-12-06T03:11:51.139Z,0.00
2018-12-06T03:12:52.838Z,0.00
2018-12-06T03:13:53.446Z,0.00
2018-12-06T03:14:54.172Z,0.00
2018-12-06T03:15:54.789Z,0.00
2018-12-06T03:16:55.528Z,0.00
2018-12-06T03:17:56.131Z,0.00
2018-12-06T03:18:57.799Z,0.00
2018-12-06T03:19:58.404Z,0.00
2018-12-06T03:21:00.053Z,0.00
2018-12-06T03:22:00.694Z,0.00
2018-12-06T03:23:01.300Z,0.00
2018-12-06T03:24:02.959Z,0.00
2018-12-06T03:25:03.560Z,0.00
2018-12-06T03:26:06.232Z,0.00
2018-12-06T03:27:06.853Z,0.00
2018-12-06T03:28:07.467Z,0.00
2018-12-06T03:29:10.167Z,0.00
2018-12-06T03:30:10.758Z,0.00
2018-12-06T03:31:12.428Z,0.00
2018-12-06T03:32:13.027Z,0.00
2018-12-06T03:33:13.643Z,0.00
2018-12-06T03:34:14.253Z,0.00
2018-12-06T03:35:14.888Z,0.00
2018-12-06T03:36:15.507Z,0.00
2018-12-06T03:37:16.259Z,0.00
2018-12-06T03:38:16.852Z,0.00
2018-12-06T03:39:17.572Z,0.00
2018-12-06T03:40:18.216Z,0.00
2018-12-06T03:41:18.919Z,0.00
2018-12-06T03:42:19.537Z,0.00
2018-12-06T03:43:21.187Z,0.00
2018-12-06T03:44:22.061Z,0.00
2018-12-06T03:45:22.756Z,0.00
2018-12-06T03:46:23.359Z,0.00
2018-12-06T03:47:24.101Z,0.00
2018-12-06T03:48:24.708Z,0.00
2018-12-06T03:49:25.427Z,0.00
2018-12-06T03:50:26.040Z,0.00
2018-12-06T03:51:26.654Z,0.00
2018-12-06T03:52:27.270Z,0.00
2018-12-06T03:53:27.906Z,0.00
2018-12-06T03:54:35.381Z,0.00
2018-12-06T03:55:36.211Z,0.00
2018-12-06T03:56:37.853Z,0.00
2018-12-06T03:57:38.468Z,0.00
2018-12-06T03:58:39.145Z,0.00
2018-12-06T03:59:41.312Z,0.00
2018-12-06T04:00:41.984Z,0.00
2018-12-06T04:01:42.593Z,0.00
2018-12-06T04:02:43.310Z,0.00
2018-12-06T04:03:43.958Z,0.00
2018-12-06T04:04:44.683Z,0.00
2018-12-06T04:05:45.276Z,0.00
2018-12-06T04:06:46.925Z,0.00
2018-12-06T04:07:47.545Z,0.00
2018-12-06T04:08:49.215Z,0.00
2018-12-06T04:09:49.806Z,0.00
2018-12-06T04:10:50.532Z,0.00
2018-12-06T04:11:51.152Z,0.00
2018-12-06T04:12:51.888Z,0.00
2018-12-06T04:13:52.505Z,0.00
2018-12-06T04:14:53.112Z,0.00
2018-12-06T04:15:53.769Z,0.00
2018-12-06T04:16:54.360Z,0.00
2018-12-06T04:17:54.983Z,0.00
2018-12-06T04:18:56.637Z,0.00
2018-12-06T04:19:57.252Z,0.00
2018-12-06T04:20:58.909Z,0.00
2018-12-06T04:21:59.525Z,0.00
2018-12-06T04:23:02.185Z,0.00
2018-12-06T04:24:02.806Z,0.00
2018-12-06T04:25:04.477Z,0.00
2018-12-06T04:26:05.089Z,0.00
2018-12-06T04:27:05.804Z,0.00
2018-12-06T04:28:06.421Z,0.00
2018-12-06T04:29:07.156Z,0.00
2018-12-06T04:30:07.772Z,0.00
2018-12-06T04:31:08.478Z,0.00
2018-12-06T04:32:09.114Z,0.00
2018-12-06T04:33:09.725Z,0.00
2018-12-06T04:34:12.401Z,0.00
2018-12-06T04:35:13.025Z,0.00
2018-12-06T04:36:13.754Z,0.00
2018-12-06T04:37:14.365Z,0.00
2018-12-06T04:38:15.078Z,0.00
2018-12-06T04:39:15.711Z,0.00
2018-12-06T04:40:16.445Z,0.00
2018-12-06T04:41:17.058Z,0.00
2018-12-06T04:42:17.770Z,0.00
2018-12-06T04:43:18.388Z,0.00
2018-12-06T04:44:19.139Z,0.00
2018-12-06T04:45:19.745Z,0.00
2018-12-06T04:46:20.476Z,0.00
2018-12-06T04:47:21.098Z,0.00
2018-12-06T04:48:22.414Z,0.00
2018-12-06T04:49:22.309Z,0.00
2018-12-06T04:50:22.940Z,0.00
2018-12-06T04:51:23.569Z,0.00
2018-12-06T04:52:24.295Z,0.00
2018-12-06T04:53:24.910Z,0.00
2018-12-06T04:54:25.530Z,0.00
2018-12-06T04:55:26.145Z,0.00
2018-12-06T04:56:27.806Z,0.00
2018-12-06T04:57:28.413Z,0.00
2018-12-06T04:58:30.080Z,0.00
2018-12-06T04:59:30.681Z,0.00
2018-12-06T05:00:32.343Z,0.00
2018-12-06T05:01:32.982Z,0.00
2018-12-06T05:02:33.564Z,0.00
2018-12-06T05:03:34.297Z,0.00
2018-12-06T05:04:34.928Z,0.00
2018-12-06T05:05:35.658Z,0.00
2018-12-06T05:06:36.256Z,0.00
2018-12-06T05:07:36.983Z,0.00
2018-12-06T05:08:37.615Z,0.00
2018-12-06T05:09:38.342Z,0.00
2018-12-06T05:10:38.946Z,0.00
2018-12-06T05:11:39.683Z,0.00
2018-12-06T05:12:40.306Z,0.00
2018-12-06T05:13:41.947Z,0.00
2018-12-06T05:14:42.567Z,0.00
2018-12-06T05:15:43.285Z,0.00
2018-12-06T05:16:43.905Z,0.00
2018-12-06T05:17:44.507Z,0.00
2018-12-06T05:18:45.261Z,0.00
2018-12-06T05:19:45.873Z,0.00
2018-12-06T05:20:46.608Z,0.00
2018-12-06T05:21:47.229Z,0.00
2018-12-06T05:22:47.961Z,0.00
2018-12-06T05:23:48.562Z,0.00
2018-12-06T05:24:50.209Z,0.00
2018-12-06T05:25:50.831Z,0.00
2018-12-06T05:26:51.428Z,0.00
2018-12-06T05:27:53.188Z,0.00
2018-12-06T05:28:53.681Z,0.00
2018-12-06T05:29:54.149Z,0.00
2018-12-06T05:30:54.760Z,0.00
2018-12-06T05:31:55.449Z,0.00
2018-12-06T05:32:55.802Z,0.00
2018-12-06T05:33:56.296Z,0.00
2018-12-06T05:34:56.805Z,0.00
2018-12-06T05:35:57.228Z,0.00
2018-12-06T05:36:57.705Z,0.00
2018-12-06T05:37:58.282Z,0.00
2018-12-06T05:38:58.706Z,0.00
2018-12-06T05:39:59.213Z,0.00
2018-12-06T05:40:59.650Z,0.00
2018-12-06T05:42:00.149Z,0.00
2018-12-06T05:43:00.614Z,0.00
2018-12-06T05:44:01.309Z,0.00
2018-12-06T05:45:01.772Z,0.00
2018-12-06T05:46:03.237Z,0.00
2018-12-06T05:47:03.669Z,0.00
2018-12-06T05:48:04.126Z,0.00
2018-12-06T05:49:04.694Z,0.00
2018-12-06T05:50:05.131Z,0.00
2018-12-06T05:51:05.651Z,0.00
2018-12-06T05:52:06.110Z,0.00
2018-12-06T05:53:06.690Z,0.00
2018-12-06T05:54:07.117Z,0.00
2018-12-06T05:55:07.593Z,0.00
2018-12-06T05:56:08.038Z,0.00
2018-12-06T05:57:08.543Z,0.00
2018-12-06T05:58:08.991Z,0.00
2018-12-06T05:59:09.486Z,0.00
2018-12-06T06:00:09.929Z,0.00
2018-12-06T06:01:10.402Z,0.00
2018-12-06T06:02:10.869Z,0.00
2018-12-06T06:03:12.364Z,0.00
2018-12-06T06:04:12.812Z,0.00
2018-12-06T06:05:13.294Z,0.00
2018-12-06T06:06:13.747Z,0.00
2018-12-06T06:07:14.232Z,0.00
2018-12-06T06:08:14.734Z,0.00
2018-12-06T06:09:15.151Z,0.00
2018-12-06T06:10:15.605Z,0.00
2018-12-06T06:11:16.071Z,0.00
2018-12-06T06:12:16.504Z,0.00
2018-12-06T06:13:17.016Z,0.00
2018-12-06T06:14:17.480Z,0.00
2018-12-06T06:15:17.966Z,0.00
2018-12-06T06:16:18.408Z,0.00
2018-12-06T06:17:18.893Z,0.00
2018-12-06T06:18:19.345Z,0.00
2018-12-06T06:19:19.808Z,0.00
2018-12-06T06:20:20.370Z,0.00
2018-12-06T06:21:20.835Z,0.00
2018-12-06T06:22:21.703Z,0.00
2018-12-06T06:23:21.832Z,0.00
2018-12-06T06:24:24.465Z,0.00
2018-12-06T06:25:24.807Z,0.00
2018-12-06T06:26:25.322Z,0.00
2018-12-06T06:27:26.346Z,0.00
2018-12-06T06:28:26.231Z,0.00
2018-12-06T06:29:26.692Z,0.00
2018-12-06T06:30:27.309Z,0.00
2018-12-06T06:31:27.740Z,0.00
2018-12-06T06:32:28.220Z,0.00
2018-12-06T06:33:28.687Z,0.00
2018-12-06T06:34:29.151Z,0.00
2018-12-06T06:35:29.627Z,0.00
2018-12-06T06:36:31.124Z,0.00
2018-12-06T06:37:31.587Z,0.00
2018-12-06T06:38:32.089Z,0.00
2018-12-06T06:39:32.531Z,0.00
2018-12-06T06:40:33.083Z,0.00
2018-12-06T06:41:33.538Z,0.00
2018-12-06T06:42:36.113Z,0.00
2018-12-06T06:43:36.596Z,0.00
2018-12-06T06:44:37.018Z,0.00
2018-12-06T06:45:37.461Z,0.00
2018-12-06T06:46:38.076Z,0.00
2018-12-06T06:47:38.531Z,0.00
2018-12-06T06:48:39.143Z,0.00
2018-12-06T06:49:39.579Z,0.00
2018-12-06T06:50:40.113Z,0.00
2018-12-06T06:51:40.554Z,0.00
2018-12-06T06:52:41.044Z,0.00
2018-12-06T06:53:41.562Z,0.00
2018-12-06T06:54:41.982Z,0.00
2018-12-06T06:55:42.441Z,0.00
2018-12-06T06:56:42.908Z,0.00
2018-12-06T06:57:43.321Z,0.00
2018-12-06T06:58:43.759Z,0.00
2018-12-06T06:59:44.326Z,0.00
2018-12-06T07:00:44.787Z,4.00
2018-12-06T07:01:45.196Z,0.00
2018-12-06T07:02:45.648Z,0.00
2018-12-06T07:03:46.132Z,4.00
2018-12-06T07:04:46.582Z,4.00
2018-12-06T07:05:47.069Z,4.00
2018-12-06T07:06:47.511Z,4.00
2018-12-06T07:07:50.357Z,4.00
2018-12-06T07:08:50.808Z,4.00
2018-12-06T07:09:51.285Z,4.00
2018-12-06T07:10:51.726Z,8.00
2018-12-06T07:11:52.231Z,8.00
2018-12-06T07:12:52.662Z,8.00
2018-12-06T07:13:53.154Z,8.00
2018-12-06T07:14:53.675Z,8.00
2018-12-06T07:15:54.151Z,8.00
2018-12-06T07:17:01.378Z,12.00
2018-12-06T07:18:01.822Z,12.00
2018-12-06T07:19:02.325Z,8.00
2018-12-06T07:20:02.775Z,12.00
2018-12-06T07:21:03.250Z,12.00
2018-12-06T07:22:03.708Z,16.00
2018-12-06T07:23:04.188Z,12.00
2018-12-06T07:24:04.627Z,16.00
2018-12-06T07:25:05.112Z,20.00
2018-12-06T07:26:05.546Z,20.00
2018-12-06T07:27:06.008Z,24.00
2018-12-06T07:28:06.571Z,28.00
2018-12-06T07:29:07.008Z,32.00
2018-12-06T07:30:12.236Z,40.00
2018-12-06T07:31:07.945Z,44.00
2018-12-06T07:32:08.552Z,44.00
2018-12-06T07:33:08.987Z,48.00
2018-12-06T07:34:09.533Z,48.00
2018-12-06T07:35:09.899Z,52.00
2018-12-06T07:36:10.342Z,56.00
2018-12-06T07:37:10.796Z,60.00
2018-12-06T07:38:11.264Z,60.00
2018-12-06T07:39:11.708Z,64.00
2018-12-06T07:40:12.154Z,64.00
2018-12-06T07:41:12.588Z,68.00
2018-12-06T07:42:13.053Z,80.00
2018-12-06T07:43:13.501Z,88.00
2018-12-06T07:44:14.048Z,108.00
2018-12-06T07:45:14.503Z,132.00
2018-12-06T07:46:14.949Z,148.00
2018-12-06T07:47:15.389Z,200.00
2018-12-06T07:48:15.837Z,236.00
2018-12-06T07:49:16.318Z,240.00
2018-12-06T07:50:16.768Z,224.00
2018-12-06T07:51:17.223Z,208.00
2018-12-06T07:52:17.663Z,200.00
2018-12-06T07:53:18.109Z,188.00
2018-12-06T07:54:18.568Z,156.00
2018-12-06T07:55:19.009Z,136.00
2018-12-06T07:56:19.465Z,120.00
2018-12-06T07:57:19.940Z,112.00
2018-12-06T07:58:20.384Z,120.00
2018-12-06T07:59:20.895Z,132.00
2018-12-06T08:00:21.398Z,140.00
2018-12-06T08:01:21.950Z,144.00
2018-12-06T08:02:22.390Z,136.00
2018-12-06T08:03:22.828Z,140.00
2018-12-06T08:04:23.276Z,124.00
2018-12-06T08:05:23.710Z,124.00
2018-12-06T08:06:24.168Z,132.00
2018-12-06T08:07:24.622Z,140.00
2018-12-06T08:08:25.081Z,136.00
2018-12-06T08:09:25.530Z,152.00
2018-12-06T08:10:25.963Z,172.00
2018-12-06T08:11:26.449Z,180.00
2018-12-06T08:12:26.881Z,164.00
2018-12-06T08:13:27.313Z,176.00
2018-12-06T08:14:27.765Z,172.00
2018-12-06T08:15:28.210Z,156.00
2018-12-06T08:16:28.664Z,156.00
2018-12-06T08:17:29.130Z,168.00
2018-12-06T08:18:29.598Z,164.00
2018-12-06T08:19:30.032Z,176.00
2018-12-06T08:20:30.562Z,176.00
2018-12-06T08:21:31.010Z,192.00
2018-12-06T08:22:31.604Z,228.00
2018-12-06T08:23:32.080Z,224.00
2018-12-06T08:24:32.747Z,220.00
2018-12-06T08:25:33.216Z,236.00
2018-12-06T08:26:33.644Z,268.00
2018-12-06T08:27:34.082Z,300.00
2018-12-06T08:28:34.535Z,336.00
2018-12-06T08:29:34.969Z,392.00
2018-12-06T08:30:35.421Z,428.00
2018-12-06T08:31:35.935Z,444.00
2018-12-06T08:32:36.383Z,456.00
2018-12-06T08:33:36.831Z,504.00
2018-12-06T08:34:37.292Z,488.00
2018-12-06T08:35:37.732Z,512.00
2018-12-06T08:36:38.229Z,516.00
2018-12-06T08:37:38.675Z,488.00
2018-12-06T08:38:39.149Z,492.00
2018-12-06T08:39:39.607Z,520.00
2018-12-06T08:40:40.099Z,464.00
2018-12-06T08:41:40.561Z,412.00
2018-12-06T08:42:45.610Z,396.00
2018-12-06T08:43:41.564Z,448.00
2018-12-06T08:44:42.014Z,460.00
2018-12-06T08:45:42.466Z,448.00
2018-12-06T08:46:42.926Z,480.00
2018-12-06T08:47:43.450Z,560.00
2018-12-06T08:48:43.894Z,632.00
2018-12-06T08:49:44.423Z,676.00
2018-12-06T08:50:44.817Z,616.00
2018-12-06T08:51:45.266Z,620.00
2018-12-06T08:52:45.736Z,616.00
2018-12-06T08:53:46.183Z,536.00
2018-12-06T08:54:46.620Z,528.00
2018-12-06T08:55:47.082Z,452.00
2018-12-06T08:56:47.526Z,384.00
2018-12-06T08:57:48.035Z,364.00
2018-12-06T08:58:49.248Z,352.00
2018-12-06T08:59:48.930Z,400.00
2018-12-06T09:00:49.483Z,404.00
2018-12-06T09:01:49.927Z,440.00
2018-12-06T09:02:50.420Z,480.00
2018-12-06T09:03:50.889Z,528.00
2018-12-06T09:04:51.306Z,436.00
2018-12-06T09:05:51.797Z,388.00
2018-12-06T09:06:52.202Z,392.00
2018-12-06T09:07:52.665Z,416.00
2018-12-06T09:08:53.171Z,412.00
2018-12-06T09:09:53.552Z,412.00
2018-12-06T09:10:54.001Z,440.00
2018-12-06T09:11:54.488Z,536.00
2018-12-06T09:12:54.959Z,568.00
2018-12-06T09:13:55.380Z,580.00
2018-12-06T09:14:55.915Z,652.00
2018-12-06T09:15:56.272Z,584.00
2018-12-06T09:16:56.769Z,648.00
2018-12-06T09:17:57.253Z,660.00
2018-12-06T09:18:58.829Z,732.00
2018-12-06T09:19:59.247Z,708.00
2018-12-06T09:20:59.726Z,768.00
2018-12-06T09:22:00.149Z,768.00
2018-12-06T09:23:00.607Z,676.00
2018-12-06T09:24:01.030Z,716.00
2018-12-06T09:25:01.612Z,620.00
2018-12-06T09:26:02.069Z,548.00
2018-12-06T09:27:02.652Z,524.00
2018-12-06T09:28:03.106Z,496.00
2018-12-06T09:29:03.535Z,488.00
2018-12-06T09:30:03.991Z,504.00
2018-12-06T09:31:05.512Z,480.00
2018-12-06T09:32:05.959Z,464.00
2018-12-06T09:33:06.407Z,480.00
2018-12-06T09:34:06.855Z,568.00
2018-12-06T09:35:07.320Z,652.00
2018-12-06T09:36:07.753Z,600.00
2018-12-06T09:37:08.257Z,572.00
2018-12-06T09:38:08.668Z,544.00
2018-12-06T09:39:15.905Z,656.00
2018-12-06T09:40:16.390Z,668.00
2018-12-06T09:41:18.943Z,724.00
2018-12-06T09:42:19.366Z,704.00
2018-12-06T09:44:58.891Z,836.00
2018-12-06T09:45:59.368Z,848.00
2018-12-06T09:46:59.815Z,852.00
2018-12-06T09:48:00.312Z,812.00
2018-12-06T09:49:00.854Z,872.00
2018-12-06T09:50:03.301Z,840.00
2018-12-06T09:51:03.822Z,864.00
2018-12-06T09:52:20.008Z,832.00
2018-12-06T09:53:20.470Z,888.00
2018-12-06T09:54:21.036Z,912.00
2018-12-06T09:55:21.482Z,864.00
2018-12-06T09:56:22.994Z,764.00
2018-12-06T09:57:23.476Z,712.00
2018-12-06T09:58:24.028Z,732.00
2018-12-06T09:59:24.493Z,752.00
2018-12-06T10:00:24.951Z,716.00
2018-12-06T10:01:25.562Z,660.00
2018-12-06T10:02:26.040Z,644.00
2018-12-06T10:03:26.595Z,656.00
2018-12-06T10:04:27.302Z,636.00
2018-12-06T10:05:27.935Z,660.00
2018-12-06T10:06:28.384Z,704.00
2018-12-06T10:07:28.849Z,692.00
2018-12-06T10:08:29.407Z,756.00
2018-12-06T10:09:29.837Z,724.00
2018-12-06T10:10:30.451Z,768.00
2018-12-06T10:11:30.909Z,704.00
2018-12-06T10:12:31.579Z,680.00
2018-12-06T10:13:32.042Z,748.00
2018-12-06T10:14:32.496Z,740.00
2018-12-06T10:15:32.966Z,744.00
2018-12-06T10:16:33.406Z,780.00
2018-12-06T10:17:33.978Z,736.00
2018-12-06T10:18:34.407Z,780.00
2018-12-06T10:19:41.615Z,760.00
2018-12-06T10:20:42.027Z,752.00
2018-12-06T10:21:42.611Z,760.00
2018-12-06T10:22:43.075Z,804.00
2018-12-06T10:23:43.560Z,844.00
2018-12-06T10:35:15.961Z,262140.00
2018-12-06T10:37:55.268Z,262140.00
2018-12-06T10:38:55.865Z,262140.00
2018-12-06T10:41:49.941Z,262140.00
2018-12-06T10:42:50.532Z,262140.00
2018-12-06T10:45:44.584Z,262140.00
2018-12-06T10:46:45.178Z,262140.00
2018-12-06T10:51:40.998Z,8.00
2018-12-06T10:52:41.472Z,80.00
2018-12-06T10:55:35.771Z,708.00
2018-12-06T10:56:36.399Z,680.00
2018-12-06T10:59:32.456Z,712.00
2018-12-06T11:00:32.944Z,796.00
2018-12-06T11:03:26.934Z,1044.00
2018-12-06T11:04:27.547Z,1160.00
2018-12-06T11:07:22.481Z,1108.00
2018-12-06T11:08:22.965Z,1204.00
2018-12-06T11:11:18.954Z,1288.00
2018-12-06T11:12:19.479Z,1180.00
2018-12-06T11:15:13.756Z,848.00
2018-12-06T11:16:14.254Z,1004.00
2018-12-06T11:19:08.095Z,844.00
2018-12-06T11:20:10.222Z,860.00
2018-12-06T11:21:10.763Z,824.00
2018-12-06T11:22:11.274Z,1108.00
2018-12-06T11:23:13.698Z,988.00
2018-12-06T11:24:14.229Z,1152.00
2018-12-06T11:25:14.755Z,1140.00
2018-12-06T11:26:15.234Z,1244.00
2018-12-06T11:27:15.745Z,1208.00
2018-12-06T11:28:16.240Z,1252.00
2018-12-06T11:29:16.829Z,1460.00
2018-12-06T11:30:17.381Z,2120.00
2018-12-06T11:31:17.965Z,2224.00
2018-12-06T11:32:18.458Z,1788.00
2018-12-06T11:33:19.004Z,1848.00
2018-12-06T11:34:19.551Z,1704.00
2018-12-06T11:35:20.040Z,1688.00
2018-12-06T11:36:20.669Z,1808.00
2018-12-06T11:37:21.163Z,1768.00
2018-12-06T11:38:22.731Z,1860.00
2018-12-06T11:39:23.229Z,1624.00
2018-12-06T11:40:23.766Z,1472.00
2018-12-06T11:41:24.262Z,1108.00
2018-12-06T11:42:24.795Z,1020.00
2018-12-06T11:43:25.306Z,1068.00
2018-12-06T11:44:25.930Z,940.00
2018-12-06T11:45:26.449Z,1176.00
2018-12-06T11:46:27.072Z,1200.00
2018-12-06T11:47:27.567Z,1216.00
2018-12-06T11:48:28.065Z,1152.00
2018-12-06T11:49:28.573Z,984.00
2018-12-06T11:50:29.098Z,1428.00
2018-12-06T11:51:29.768Z,1476.00
2018-12-06T11:52:30.255Z,1288.00
2018-12-06T11:53:30.760Z,1256.00
2018-12-06T11:54:31.333Z,1128.00
2018-12-06T11:55:31.858Z,1364.00
2018-12-06T11:56:32.330Z,1312.00
2018-12-06T11:57:32.876Z,1276.00
2018-12-06T11:58:33.388Z,1120.00
2018-12-06T11:59:33.922Z,1100.00
2018-12-06T12:00:34.424Z,1008.00
2018-12-06T12:01:34.919Z,1080.00
2018-12-06T12:02:35.475Z,1064.00
2018-12-06T12:03:35.982Z,1204.00
2018-12-06T12:04:36.474Z,1412.00
2018-12-06T12:05:37.000Z,1448.00
2018-12-06T12:06:37.507Z,1356.00
2018-12-06T12:07:38.069Z,1516.00
2018-12-06T12:08:38.559Z,1496.00
2018-12-06T12:09:39.063Z,1320.00
2018-12-06T12:10:39.562Z,892.00
2018-12-06T12:11:40.073Z,956.00
2018-12-06T12:12:40.605Z,856.00
2018-12-06T12:13:41.092Z,756.00
2018-12-06T12:14:41.604Z,788.00
2018-12-06T12:15:42.085Z,668.00
2018-12-06T12:16:42.584Z,584.00
2018-12-06T12:17:43.111Z,640.00
2018-12-06T12:18:43.601Z,848.00
2018-12-06T12:19:44.090Z,784.00
2018-12-06T12:20:44.596Z,784.00
2018-12-06T12:21:45.092Z,980.00
2018-12-06T12:22:45.637Z,932.00
2018-12-06T12:23:46.156Z,1328.00
2018-12-06T12:24:46.651Z,1028.00
2018-12-06T12:25:48.005Z,856.00
2018-12-06T12:26:47.646Z,1136.00
2018-12-06T12:27:48.159Z,1260.00
2018-12-06T12:28:48.663Z,1408.00
2018-12-06T12:29:49.159Z,1256.00
2018-12-06T12:30:49.667Z,1232.00
2018-12-06T12:31:50.155Z,1212.00
2018-12-06T12:32:51.737Z,1380.00
2018-12-06T12:33:52.243Z,1528.00
2018-12-06T12:34:52.755Z,1364.00
2018-12-06T12:35:53.252Z,1292.00
2018-12-06T12:36:53.763Z,1184.00
2018-12-06T12:37:55.374Z,1244.00
2018-12-06T12:38:55.875Z,1080.00
2018-12-06T12:39:57.421Z,864.00
2018-12-06T12:40:57.964Z,836.00
2018-12-06T12:41:58.661Z,1116.00
2018-12-06T12:42:59.148Z,1128.00
2018-12-06T12:43:59.700Z,1304.00
2018-12-06T12:45:00.196Z,1568.00
2018-12-06T12:46:01.069Z,1616.00
2018-12-06T12:47:01.555Z,1964.00
2018-12-06T12:48:02.188Z,1908.00
2018-12-06T12:49:02.694Z,1836.00
2018-12-06T12:50:03.196Z,1592.00
2018-12-06T12:51:03.899Z,1396.00
2018-12-06T12:52:04.437Z,2088.00
2018-12-06T12:53:05.036Z,1976.00
2018-12-06T12:54:05.564Z,1828.00
2018-12-06T12:55:06.085Z,2364.00
2018-12-06T12:56:06.597Z,2148.00
2018-12-06T12:57:07.182Z,2056.00
2018-12-06T12:58:07.728Z,1956.00
2018-12-06T12:59:08.322Z,1592.00
2018-12-06T13:00:08.851Z,1356.00
2018-12-06T13:01:09.493Z,1196.00
2018-12-06T13:02:09.968Z,1076.00
2018-12-06T13:03:10.674Z,1236.00
2018-12-06T13:04:11.197Z,1064.00
2018-12-06T13:05:11.702Z,912.00
2018-12-06T13:06:12.193Z,808.00
2018-12-06T13:07:12.705Z,656.00
2018-12-06T13:08:13.218Z,700.00
2018-12-06T13:09:13.711Z,816.00
2018-12-06T13:10:14.186Z,872.00
2018-12-06T13:11:14.704Z,784.00
2018-12-06T13:12:15.218Z,1048.00
2018-12-06T13:13:15.742Z,1436.00
2018-12-06T13:14:16.259Z,1860.00
2018-12-06T13:15:16.793Z,1988.00
2018-12-06T13:16:17.360Z,1572.00
2018-12-06T13:17:17.879Z,1864.00
2018-12-06T13:18:18.350Z,1852.00
2018-12-06T13:19:18.886Z,1768.00
2018-12-06T13:20:19.361Z,1636.00
2018-12-06T13:21:20.014Z,1696.00
2018-12-06T13:22:20.527Z,2068.00
2018-12-06T13:23:21.043Z,2300.00
2018-12-06T13:24:21.608Z,2248.00
2018-12-06T13:25:22.063Z,2028.00
2018-12-06T13:26:22.569Z,1692.00
2018-12-06T13:27:23.125Z,1704.00
2018-12-06T13:28:23.670Z,2084.00
2018-12-06T13:29:24.266Z,2412.00
2018-12-06T13:30:24.759Z,1812.00
2018-12-06T13:31:25.390Z,1904.00
2018-12-06T13:32:25.911Z,1676.00
2018-12-06T13:33:26.415Z,1640.00
2018-12-06T13:34:26.959Z,1136.00
2018-12-06T13:35:27.472Z,1212.00
2018-12-06T13:36:27.984Z,1076.00